Time;durP1;ratioP1;P1;durP2;ratioP2;P2;SDS_P1;SDS_P2;PMS_P1;PMS_P2;Temp;Humidity;BMP_temperature;BMP_pressure;BME280_temperature;BME280_humidity;BME280_pressure;Samples;Min_cycle;Max_cycle;Signal;HPM_P1;HPM_P2
2023/09/26 00:01:41;;;;;;;16.83;12.97;;;10.50;99.90;;;;;;5008631;28;20196;-49
2023/09/26 00:04:07;;;;;;;17.90;13.83;;;10.40;99.90;;;;;;5000512;28;20485;-49
2023/09/26 00:06:33;;;;;;;19.33;13.57;;;10.40;99.90;;;;;;5002501;28;20675;-49
2023/09/26 00:08:58;;;;;;;15.00;11.83;;;10.30;99.90;;;;;;5004869;28;20445;-49
2023/09/26 00:11:24;;;;;;;15.53;12.20;;;10.30;99.90;;;;;;5008174;28;20195;-51
2023/09/26 00:13:50;;;;;;;14.67;11.57;;;10.30;99.90;;;;;;5001863;28;20196;-49
2023/09/26 00:16:16;;;;;;;15.77;11.90;;;10.30;99.90;;;;;;4999197;28;20273;-49
2023/09/26 00:18:42;;;;;;;19.40;12.73;;;10.30;99.90;;;;;;4999311;28;20465;-50
2023/09/26 00:21:08;;;;;;;16.20;11.40;;;10.20;99.90;;;;;;4999782;28;20560;-50
2023/09/26 00:23:35;;;;;;;12.30;10.97;;;10.20;99.90;;;;;;4998195;28;20510;-49
2023/09/26 00:26:01;;;;;;;17.90;13.03;;;10.10;99.90;;;;;;5003513;28;20938;-49
2023/09/26 00:28:28;;;;;;;16.60;12.17;;;10.10;99.90;;;;;;5004430;28;21020;-49
2023/09/26 00:30:56;;;;;;;18.20;12.70;;;10.10;99.90;;;;;;5006484;28;20438;-50
2023/09/26 00:33:22;;;;;;;17.70;12.43;;;10.20;99.90;;;;;;4999074;28;20441;-49
2023/09/26 00:35:47;;;;;;;16.63;11.97;;;10.10;99.90;;;;;;5002003;28;20438;-49
2023/09/26 00:38:13;;;;;;;17.50;11.90;;;10.00;99.90;;;;;;4997641;28;20488;-50
2023/09/26 00:40:42;;;;;;;17.40;12.43;;;10.00;99.90;;;;;;4996690;28;20190;-50
2023/09/26 00:43:09;;;;;;;15.97;11.70;;;9.90;99.90;;;;;;4997826;28;20184;-50
2023/09/26 00:45:35;;;;;;;16.70;12.53;;;9.90;99.90;;;;;;5007301;28;20482;-49
2023/09/26 00:48:03;;;;;;;16.60;12.63;;;9.90;99.90;;;;;;5001784;28;20945;-49
2023/09/26 00:50:28;;;;;;;15.50;12.90;;;9.90;99.90;;;;;;4999103;28;20996;-50
2023/09/26 00:52:55;;;;;;;18.37;12.20;;;10.00;99.90;;;;;;4997883;28;20454;-49
2023/09/26 00:55:22;;;;;;;15.63;12.43;;;10.00;99.90;;;;;;5000908;28;20648;-49
2023/09/26 00:57:48;;;;;;;15.00;12.57;;;9.90;99.90;;;;;;4997870;28;20533;-50
2023/09/26 01:00:16;;;;;;;13.90;11.90;;;9.90;99.90;;;;;;5002280;28;20526;-51
2023/09/26 01:02:43;;;;;;;15.67;11.30;;;9.90;99.90;;;;;;5000901;28;20464;-49
2023/09/26 01:05:09;;;;;;;19.70;13.10;;;9.90;99.90;;;;;;4996788;28;20481;-49
2023/09/26 01:07:35;;;;;;;14.30;11.87;;;9.90;99.90;;;;;;4999498;28;20806;-49
2023/09/26 01:10:03;;;;;;;17.97;12.97;;;9.90;99.90;;;;;;4997546;28;20532;-49
2023/09/26 01:12:29;;;;;;;15.07;12.70;;;9.90;99.90;;;;;;5003510;28;20439;-49
2023/09/26 01:14:55;;;;;;;22.23;13.30;;;9.90;99.90;;;;;;5002507;28;20522;-49
2023/09/26 01:17:21;;;;;;;13.47;11.33;;;9.80;99.90;;;;;;4997764;28;20226;-49
2023/09/26 01:19:46;;;;;;;16.70;11.93;;;9.80;99.90;;;;;;5005791;28;20476;-48
2023/09/26 01:22:16;;;;;;;13.17;11.27;;;9.80;99.90;;;;;;5006066;28;20200;-49
2023/09/26 01:24:43;;;;;;;18.70;12.77;;;9.70;99.90;;;;;;5005704;28;20217;-49
2023/09/26 01:27:09;;;;;;;13.90;11.73;;;9.70;99.90;;;;;;5000824;28;20935;-49
2023/09/26 01:29:35;;;;;;;15.70;12.10;;;9.60;99.90;;;;;;5000331;28;20438;-50
2023/09/26 01:32:00;;;;;;;18.60;12.60;;;9.60;99.90;;;;;;5000931;28;20444;-49
2023/09/26 01:34:26;;;;;;;14.70;12.80;;;9.60;99.90;;;;;;5001165;28;20192;-49
2023/09/26 01:36:52;;;;;;;16.00;12.50;;;9.60;99.90;;;;;;4997229;28;20334;-48
2023/09/26 01:39:17;;;;;;;16.27;13.37;;;9.70;99.90;;;;;;4997767;28;20655;-49
2023/09/26 01:41:43;;;;;;;15.70;12.87;;;9.70;99.90;;;;;;4996927;28;20190;-49
2023/09/26 01:44:09;;;;;;;19.27;13.33;;;9.70;99.90;;;;;;5000841;28;20218;-50
2023/09/26 01:46:34;;;;;;;14.30;11.57;;;9.70;99.90;;;;;;4996807;28;20190;-49
2023/09/26 01:49:00;;;;;;;14.93;12.53;;;9.70;99.90;;;;;;4996483;28;20277;-49
2023/09/26 01:51:26;;;;;;;17.50;12.60;;;9.60;99.90;;;;;;4998006;28;20199;-49
2023/09/26 01:53:51;;;;;;;18.07;12.57;;;9.60;99.90;;;;;;5003292;28;20195;-50
2023/09/26 01:56:17;;;;;;;16.27;12.70;;;9.60;99.90;;;;;;5003994;28;20281;-49
2023/09/26 01:58:43;;;;;;;17.43;12.30;;;9.50;99.90;;;;;;5002062;28;20566;-50
2023/09/26 02:01:08;;;;;;;19.93;13.10;;;9.50;99.90;;;;;;5001280;28;20195;-49
2023/09/26 02:03:34;;;;;;;17.40;12.37;;;9.50;99.90;;;;;;4999326;28;20183;-49
2023/09/26 02:06:00;;;;;;;18.63;11.60;;;9.50;99.90;;;;;;4995548;28;20263;-49
2023/09/26 02:08:26;;;;;;;15.27;11.87;;;9.50;99.90;;;;;;4998271;28;20469;-50
2023/09/26 02:10:52;;;;;;;15.77;13.00;;;9.40;99.90;;;;;;5003589;28;20569;-49
2023/09/26 02:13:17;;;;;;;14.90;12.90;;;9.50;99.90;;;;;;4997182;28;20184;-49
2023/09/26 02:15:43;;;;;;;18.60;13.30;;;9.50;99.90;;;;;;4996269;28;20305;-49
2023/09/26 02:18:08;;;;;;;19.50;14.30;;;9.50;99.90;;;;;;4996824;28;20615;-49
2023/09/26 02:20:34;;;;;;;18.07;12.30;;;9.50;99.90;;;;;;4995377;28;20705;-49
2023/09/26 02:22:59;;;;;;;17.50;13.20;;;9.60;99.90;;;;;;4995617;28;20243;-50
2023/09/26 02:25:25;;;;;;;19.70;13.17;;;9.50;99.90;;;;;;5001468;28;20224;-48
2023/09/26 02:27:51;;;;;;;16.93;13.43;;;9.40;99.90;;;;;;4999176;28;20698;-49
2023/09/26 02:30:24;;;;;;;16.70;13.20;;;9.40;99.90;;;;;;4996825;28;20214;-49
2023/09/26 02:32:50;;;;;;;16.67;13.77;;;9.40;99.90;;;;;;5005866;28;20721;-49
2023/09/26 02:35:17;;;;;;;14.10;12.33;;;9.40;99.90;;;;;;5002701;28;20525;-48
2023/09/26 02:37:43;;;;;;;17.93;13.50;;;9.40;99.90;;;;;;5003668;28;20188;-49
2023/09/26 02:40:10;;;;;;;16.77;13.77;;;9.40;99.90;;;;;;5005392;28;20870;-49
2023/09/26 02:42:37;;;;;;;17.80;14.10;;;9.40;99.90;;;;;;5008493;28;20961;-49
2023/09/26 02:45:04;;;;;;;14.70;12.73;;;9.40;99.90;;;;;;5005112;28;20991;-49
2023/09/26 02:47:29;;;;;;;20.67;13.90;;;9.40;99.90;;;;;;5000195;28;20796;-50
2023/09/26 02:49:55;;;;;;;17.30;12.73;;;9.40;99.90;;;;;;5003027;28;20439;-49
2023/09/26 02:52:22;;;;;;;16.97;14.47;;;9.40;99.90;;;;;;5001610;28;20192;-48
2023/09/26 02:54:48;;;;;;;20.43;14.40;;;9.40;99.90;;;;;;4999054;28;20231;-49
2023/09/26 02:57:14;;;;;;;16.87;14.97;;;9.40;99.90;;;;;;5004737;28;20476;-49
2023/09/26 02:59:40;;;;;;;16.17;12.90;;;9.40;99.90;;;;;;5004272;28;20249;-49
2023/09/26 03:02:06;;;;;;;18.50;15.10;;;9.40;99.90;;;;;;4998950;28;20444;-49
2023/09/26 03:04:31;;;;;;;19.67;15.07;;;9.40;99.90;;;;;;5003381;28;20242;-49
2023/09/26 03:06:57;;;;;;;21.53;15.07;;;9.40;99.90;;;;;;5004290;28;20498;-49
2023/09/26 03:09:22;;;;;;;21.60;15.33;;;9.40;99.90;;;;;;5015313;28;20191;-49
2023/09/26 03:11:48;;;;;;;20.40;15.40;;;9.40;99.90;;;;;;5015387;28;20193;-50
2023/09/26 03:14:13;;;;;;;17.57;14.20;;;9.40;99.90;;;;;;5014826;28;20192;-49
2023/09/26 03:16:39;;;;;;;20.20;15.17;;;9.40;99.90;;;;;;5012745;28;20729;-48
2023/09/26 03:19:08;;;;;;;20.27;15.83;;;9.40;99.90;;;;;;5004345;28;20191;-49
2023/09/26 03:21:33;;;;;;;18.37;15.20;;;9.50;99.90;;;;;;5000873;28;20184;-49
2023/09/26 03:23:59;;;;;;;23.03;16.80;;;9.50;99.90;;;;;;5003518;28;20505;-49
2023/09/26 03:26:24;;;;;;;20.13;16.10;;;9.50;99.90;;;;;;5001575;28;20283;-48
2023/09/26 03:28:50;;;;;;;19.73;15.33;;;9.60;99.90;;;;;;5001683;28;20185;-49
2023/09/26 03:31:16;;;;;;;17.80;14.27;;;9.50;99.90;;;;;;5002254;28;20302;-48
2023/09/26 03:33:41;;;;;;;20.70;15.20;;;9.60;99.90;;;;;;5004822;28;20281;-49
2023/09/26 03:36:07;;;;;;;18.40;14.20;;;9.50;99.90;;;;;;5004263;28;20188;-48
2023/09/26 03:38:33;;;;;;;20.50;15.50;;;9.50;99.90;;;;;;4998352;28;20211;-49
2023/09/26 03:41:03;;;;;;;24.03;16.70;;;9.50;99.90;;;;;;4998278;28;20438;-49
2023/09/26 03:43:30;;;;;;;20.33;15.70;;;9.50;99.90;;;;;;5000854;28;20204;-49
2023/09/26 03:46:06;;;;;;;29.13;16.20;;;9.50;99.90;;;;;;4998802;28;20521;-49
2023/09/26 03:48:33;;;;;;;22.30;16.90;;;9.50;99.90;;;;;;4998523;28;20537;-49
2023/09/26 03:51:15;;;;;;;21.97;16.00;;;9.50;99.90;;;;;;5001603;28;20446;-49
2023/09/26 03:53:42;;;;;;;21.13;16.43;;;9.50;99.90;;;;;;4998325;28;20457;-49
2023/09/26 03:56:08;;;;;;;20.43;15.50;;;9.50;99.90;;;;;;5002114;28;20448;-49
2023/09/26 03:58:34;;;;;;;24.23;16.63;;;9.50;99.90;;;;;;5005009;28;20443;-49
2023/09/26 04:01:14;;;;;;;19.53;14.90;;;9.40;99.90;;;;;;5004564;28;20492;-48
2023/09/26 04:03:42;;;;;;;18.67;15.40;;;9.40;99.90;;;;;;4999202;28;20533;-48
2023/09/26 04:06:09;;;;;;;24.90;17.50;;;9.40;99.90;;;;;;5001388;28;20900;-49
2023/09/26 04:08:34;;;;;;;20.57;15.40;;;9.30;99.90;;;;;;5004839;28;21094;-48
2023/09/26 04:11:00;;;;;;;24.70;18.33;;;9.30;99.90;;;;;;5000432;28;20442;-48
2023/09/26 04:13:26;;;;;;;22.93;16.90;;;9.30;99.90;;;;;;5000180;28;20245;-48
2023/09/26 04:15:52;;;;;;;24.03;18.20;;;9.30;99.90;;;;;;5000491;28;24693;-49
2023/09/26 04:18:18;;;;;;;25.30;17.60;;;9.40;99.90;;;;;;4999813;28;20701;-49
2023/09/26 04:20:44;;;;;;;25.43;18.30;;;9.40;99.90;;;;;;4999720;28;20530;-49
2023/09/26 04:23:10;;;;;;;25.60;17.37;;;9.40;99.90;;;;;;5000138;28;20562;-48
2023/09/26 04:25:36;;;;;;;25.93;17.73;;;9.40;99.90;;;;;;5001510;28;20594;-47
2023/09/26 04:28:03;;;;;;;25.10;17.90;;;9.40;99.90;;;;;;5000565;28;20474;-48
2023/09/26 04:30:29;;;;;;;28.20;18.43;;;9.40;99.90;;;;;;5001238;28;20711;-48
2023/09/26 04:32:54;;;;;;;24.50;18.10;;;9.40;99.90;;;;;;4997624;28;20457;-48
2023/09/26 04:35:20;;;;;;;23.73;18.50;;;9.40;99.90;;;;;;4999584;28;20978;-48
2023/09/26 04:37:45;;;;;;;23.33;17.80;;;9.40;99.90;;;;;;5004647;28;20533;-48
2023/09/26 04:40:11;;;;;;;28.60;19.00;;;9.40;99.90;;;;;;5000493;28;20184;-48
2023/09/26 04:42:48;;;;;;;26.10;17.73;;;9.40;99.90;;;;;;5005588;28;20283;-49
2023/09/26 04:45:13;;;;;;;28.73;19.77;;;9.50;99.90;;;;;;4998674;28;20515;-48
2023/09/26 04:47:39;;;;;;;26.53;17.67;;;9.50;99.90;;;;;;4997876;28;20862;-48
2023/09/26 04:50:06;;;;;;;26.60;19.23;;;9.50;99.90;;;;;;4997285;28;20450;-48
2023/09/26 04:52:32;;;;;;;27.83;17.90;;;9.50;99.90;;;;;;5001767;28;20186;-48
2023/09/26 04:54:57;;;;;;;29.30;18.07;;;9.50;99.90;;;;;;4998761;28;20799;-48
2023/09/26 04:57:23;;;;;;;29.87;19.40;;;9.50;99.90;;;;;;5000105;28;20209;-48
2023/09/26 04:59:48;;;;;;;29.17;18.87;;;9.50;99.90;;;;;;5005844;28;20290;-50
2023/09/26 05:02:14;;;;;;;24.30;18.67;;;9.50;99.90;;;;;;5000016;28;20219;-48
2023/09/26 05:04:42;;;;;;;26.93;19.37;;;9.50;99.90;;;;;;5000930;28;20222;-48
2023/09/26 05:07:09;;;;;;;31.37;20.90;;;9.50;99.90;;;;;;4997783;28;20261;-48
2023/09/26 05:09:38;;;;;;;37.27;21.20;;;9.50;99.90;;;;;;5003246;28;20464;-48
2023/09/26 05:12:04;;;;;;;27.37;17.90;;;9.50;99.90;;;;;;5003501;28;20446;-48
2023/09/26 05:14:29;;;;;;;28.70;18.43;;;9.50;99.90;;;;;;5000545;28;20504;-48
2023/09/26 05:16:55;;;;;;;26.40;18.43;;;9.50;99.90;;;;;;5005521;28;20183;-48
2023/09/26 05:19:20;;;;;;;27.37;19.47;;;9.50;99.90;;;;;;5001012;28;20225;-48
2023/09/26 05:21:46;;;;;;;24.47;16.43;;;9.50;99.90;;;;;;5003330;28;20656;-48
2023/09/26 05:24:11;;;;;;;25.40;18.03;;;9.40;99.90;;;;;;4999769;28;20646;-49
2023/09/26 05:26:38;;;;;;;25.67;19.30;;;9.50;99.90;;;;;;5003542;28;20299;-47
2023/09/26 05:29:04;;;;;;;22.63;17.20;;;9.40;99.90;;;;;;5003243;28;20553;-48
2023/09/26 05:31:30;;;;;;;25.23;18.00;;;9.40;99.90;;;;;;5001692;28;20200;-48
2023/09/26 05:33:56;;;;;;;24.33;17.80;;;9.40;99.90;;;;;;4999914;28;20191;-48
2023/09/26 05:36:22;;;;;;;26.43;18.43;;;9.40;99.90;;;;;;5001703;28;20458;-48
2023/09/26 05:38:48;;;;;;;28.90;20.20;;;9.40;99.90;;;;;;4996974;28;20436;-48
2023/09/26 05:41:13;;;;;;;27.30;19.23;;;9.40;99.90;;;;;;4999122;28;20682;-48
2023/09/26 05:43:39;;;;;;;27.33;19.30;;;9.50;99.90;;;;;;4998842;28;20702;-49
2023/09/26 05:46:05;;;;;;;28.17;19.43;;;9.50;99.90;;;;;;5000567;28;20223;-48
2023/09/26 05:48:30;;;;;;;27.70;18.93;;;9.50;99.90;;;;;;4997099;28;20784;-48
2023/09/26 05:51:00;;;;;;;30.50;20.73;;;9.60;99.90;;;;;;4998727;28;20195;-47
2023/09/26 05:53:26;;;;;;;28.27;19.60;;;9.70;99.90;;;;;;4998896;28;20198;-48
2023/09/26 05:55:52;;;;;;;28.40;20.70;;;9.70;99.90;;;;;;5000609;28;20529;-48
2023/09/26 05:58:19;;;;;;;26.40;19.17;;;9.80;99.90;;;;;;5006058;28;20641;-48
2023/09/26 06:00:46;;;;;;;23.17;18.30;;;9.90;99.90;;;;;;5001531;28;20441;-48
2023/09/26 06:03:12;;;;;;;27.40;19.33;;;10.00;99.90;;;;;;5004430;28;20438;-49
2023/09/26 06:05:38;;;;;;;28.90;18.07;;;10.10;99.90;;;;;;5001014;28;20540;-48
2023/09/26 06:08:04;;;;;;;27.20;19.37;;;10.10;99.90;;;;;;5004854;28;20856;-48
2023/09/26 06:10:29;;;;;;;26.90;19.20;;;10.20;99.90;;;;;;5004573;28;20187;-49
2023/09/26 06:12:55;;;;;;;26.10;19.40;;;10.30;99.90;;;;;;5004278;28;20188;-49
2023/09/26 06:15:22;;;;;;;28.90;20.77;;;10.40;99.90;;;;;;4999814;28;20214;-49
2023/09/26 06:17:47;;;;;;;27.80;19.20;;;10.60;99.90;;;;;;5000089;28;20230;-48
2023/09/26 06:20:13;;;;;;;28.37;19.33;;;10.70;99.90;;;;;;5000169;28;20467;-49
2023/09/26 06:22:38;;;;;;;28.30;20.47;;;10.80;99.90;;;;;;4999763;28;20298;-49
2023/09/26 06:25:05;;;;;;;30.37;19.70;;;10.90;99.90;;;;;;5003055;28;20230;-49
2023/09/26 06:27:38;;;;;;;22.70;17.90;;;11.10;99.90;;;;;;4999896;28;20249;-48
2023/09/26 06:30:05;;;;;;;23.73;18.20;;;11.20;99.90;;;;;;5000784;28;20447;-49
2023/09/26 06:32:30;;;;;;;29.93;18.70;;;11.30;99.90;;;;;;5003120;28;20540;-49
2023/09/26 06:34:59;;;;;;;26.13;17.93;;;11.50;99.90;;;;;;5003353;28;20544;-48
2023/09/26 06:37:24;;;;;;;25.37;17.60;;;11.60;99.90;;;;;;4998770;28;20943;-47
2023/09/26 06:39:50;;;;;;;26.23;17.67;;;11.70;99.90;;;;;;5002634;28;20450;-48
2023/09/26 06:42:16;;;;;;;28.73;16.93;;;11.80;99.90;;;;;;5003381;28;20230;-48
2023/09/26 06:44:41;;;;;;;21.10;16.70;;;11.90;99.90;;;;;;5002520;28;20549;-49
2023/09/26 06:47:07;;;;;;;29.57;16.93;;;11.90;99.90;;;;;;4998913;28;20195;-49
2023/09/26 06:49:34;;;;;;;22.40;17.63;;;12.00;99.90;;;;;;4999367;28;20203;-49
2023/09/26 06:52:00;;;;;;;18.90;15.50;;;12.10;99.90;;;;;;5002220;28;20210;-50
2023/09/26 06:54:25;;;;;;;21.30;16.23;;;12.20;99.90;;;;;;4999727;28;20445;-49
2023/09/26 06:56:51;;;;;;;22.90;14.80;;;12.40;99.90;;;;;;5001515;28;20578;-50
2023/09/26 06:59:17;;;;;;;22.53;15.90;;;12.60;99.90;;;;;;4999577;28;20720;-51
2023/09/26 07:01:43;;;;;;;17.17;13.97;;;12.80;99.90;;;;;;4998933;28;20196;-50
2023/09/26 07:04:14;;;;;;;17.70;14.07;;;13.10;99.90;;;;;;4998597;28;20596;-50
2023/09/26 07:06:40;;;;;;;21.93;14.47;;;13.40;99.90;;;;;;4999014;28;20526;-50
2023/09/26 07:09:07;;;;;;;22.40;16.00;;;13.60;99.90;;;;;;4999278;28;20500;-51
2023/09/26 07:11:33;;;;;;;21.30;13.73;;;14.10;99.90;;;;;;4998889;28;20442;-50
2023/09/26 07:13:58;;;;;;;18.37;12.57;;;14.90;99.90;;;;;;5001604;28;20947;-50
2023/09/26 07:16:24;;;;;;;19.10;10.70;;;15.50;99.90;;;;;;4999088;28;20453;-51
2023/09/26 07:18:50;;;;;;;14.80;10.57;;;15.90;1.00;;;;;;5000215;28;20189;-48
2023/09/26 07:21:16;;;;;;;15.60;10.33;;;16.40;57.00;;;;;;5001996;28;20198;-51
2023/09/26 07:23:41;;;;;;;17.87;9.87;;;17.10;99.90;;;;;;5003602;28;21006;-51
2023/09/26 07:26:09;;;;;;;11.30;8.43;;;18.00;99.90;;;;;;5002663;28;20221;-52
2023/09/26 07:28:35;;;;;;;10.20;8.17;;;18.80;1.00;;;;;;5002377;28;20205;-51
2023/09/26 07:31:00;;;;;;;18.63;8.50;;;19.50;1.00;;;;;;4998858;28;20479;-51
2023/09/26 07:33:28;;;;;;;10.40;8.13;;;20.00;1.00;;;;;;4998090;28;20468;-52
2023/09/26 07:35:54;;;;;;;18.70;7.90;;;20.00;1.00;;;;;;4998394;28;20191;-52
2023/09/26 07:38:19;;;;;;;13.40;8.17;;;19.40;1.00;;;;;;4998529;28;20528;-52
2023/09/26 07:40:45;;;;;;;12.50;8.27;;;18.60;1.00;;;;;;4999133;28;20182;-51
2023/09/26 07:43:10;;;;;;;18.17;9.10;;;17.90;1.00;;;;;;4998413;28;20200;-51
2023/09/26 07:45:39;;;;;;;12.70;8.20;;;17.40;1.00;;;;;;4997988;28;20228;-51
2023/09/26 07:48:05;;;;;;;12.40;8.70;;;17.00;1.00;;;;;;4998362;28;20189;-51
2023/09/26 07:50:31;;;;;;;14.57;8.50;;;16.70;1.00;;;;;;5004724;28;20443;-51
2023/09/26 07:52:57;;;;;;;10.30;9.07;;;16.80;1.00;;;;;;4999364;28;20192;-51
2023/09/26 07:55:24;;;;;;;14.40;8.03;;;17.10;1.00;;;;;;4997682;28;20202;-52
2023/09/26 07:57:49;;;;;;;15.43;7.73;;;17.70;1.00;;;;;;4998377;28;21952;-52
2023/09/26 08:00:15;;;;;;;14.93;8.60;;;17.80;1.00;;;;;;4998175;28;20859;-52
2023/09/26 08:02:41;;;;;;;9.97;7.67;;;17.70;1.00;;;;;;4997566;28;20659;-51
2023/09/26 08:05:07;;;;;;;16.07;8.30;;;17.60;1.00;;;;;;4997226;28;20559;-52
2023/09/26 08:07:33;;;;;;;24.27;8.47;;;17.90;1.00;;;;;;5001605;28;20198;-52
2023/09/26 08:10:00;;;;;;;12.50;8.43;;;18.50;1.00;;;;;;4998697;28;20507;-52
2023/09/26 08:12:27;;;;;;;14.17;8.50;;;18.70;1.00;;;;;;5001072;28;20198;-51
2023/09/26 08:14:53;;;;;;;11.50;8.30;;;19.10;1.00;;;;;;4998647;28;20488;-52
2023/09/26 08:17:19;;;;;;;12.73;8.70;;;20.10;1.00;;;;;;4998201;28;20443;-52
2023/09/26 08:19:45;;;;;;;13.63;8.53;;;21.10;1.00;;;;;;4997435;28;20437;-53
2023/09/26 08:22:10;;;;;;;14.57;8.07;;;21.70;1.00;;;;;;4997491;28;20183;-52
2023/09/26 08:24:36;;;;;;;16.50;8.90;;;21.60;1.00;;;;;;4997677;28;20228;-52
2023/09/26 08:27:02;;;;;;;15.17;8.47;;;21.30;1.00;;;;;;4998047;28;20237;-51
2023/09/26 08:29:27;;;;;;;13.33;7.90;;;21.20;1.00;;;;;;4999330;28;20200;-53
2023/09/26 08:31:54;;;;;;;12.00;7.67;;;20.80;1.00;;;;;;5002175;28;20255;-53
2023/09/26 08:34:19;;;;;;;12.70;8.00;;;20.30;1.00;;;;;;4997265;28;20204;-52
2023/09/26 08:36:46;;;;;;;14.13;7.63;;;20.10;1.00;;;;;;5007243;28;20530;-53
2023/09/26 08:39:12;;;;;;;11.67;7.27;;;20.30;1.00;;;;;;4998555;28;20181;-51
2023/09/26 08:41:37;;;;;;;13.07;7.30;;;20.60;1.00;;;;;;4997244;28;20469;-53
2023/09/26 08:44:03;;;;;;;14.40;8.60;;;21.10;1.00;;;;;;5014597;28;20283;-53
2023/09/26 08:46:29;;;;;;;11.17;7.30;;;21.30;1.00;;;;;;5014731;28;20190;-51
2023/09/26 08:48:55;;;;;;;17.43;7.53;;;21.20;1.00;;;;;;5014485;28;20191;-53
2023/09/26 08:51:21;;;;;;;13.83;8.70;;;21.00;1.00;;;;;;5014343;28;20267;-53
2023/09/26 08:53:47;;;;;;;14.67;7.53;;;20.90;1.00;;;;;;5011347;28;20462;-53
2023/09/26 08:56:12;;;;;;;8.60;7.07;;;20.70;1.00;;;;;;4994755;28;20195;-53
2023/09/26 08:58:41;;;;;;;19.43;7.57;;;20.50;1.00;;;;;;4994637;28;20533;-54
2023/09/26 09:01:07;;;;;;;12.77;7.20;;;20.40;1.00;;;;;;4994603;28;20173;-54
2023/09/26 09:03:33;;;;;;;13.93;7.30;;;20.30;1.00;;;;;;4994519;28;20435;-52
2023/09/26 09:05:58;;;;;;;10.40;7.63;;;20.30;1.00;;;;;;4994299;28;20471;-53
2023/09/26 09:08:24;;;;;;;17.63;7.80;;;20.20;1.00;;;;;;4994500;28;20214;-52
2023/09/26 09:10:52;;;;;;;10.17;7.23;;;20.30;1.00;;;;;;4994407;28;20278;-53
2023/09/26 09:13:32;;;;;;;13.60;7.90;;;20.40;1.00;;;;;;4994129;28;20416;-54
2023/09/26 09:16:07;;;;;;;10.47;7.50;;;20.30;1.00;;;;;;4994613;28;20411;-54
2023/09/26 09:18:33;;;;;;;11.40;7.10;;;20.00;1.00;;;;;;4994372;28;20421;-52
2023/09/26 09:20:58;;;;;;;14.23;7.80;;;19.70;1.00;;;;;;4994305;28;20420;-53
2023/09/26 09:23:24;;;;;;;13.37;7.33;;;19.60;1.00;;;;;;4993963;28;20232;-52
2023/09/26 09:25:51;;;;;;;16.27;8.27;;;19.50;1.00;;;;;;4994262;28;20240;-53
2023/09/26 09:28:20;;;;;;;10.77;6.77;;;19.40;1.00;;;;;;4994280;28;20250;-54
2023/09/26 09:30:46;;;;;;;15.60;7.33;;;19.30;1.00;;;;;;5000120;28;20565;-54
2023/09/26 09:33:14;;;;;;;10.53;7.30;;;19.10;1.00;;;;;;5013756;28;20510;-52
2023/09/26 09:35:40;;;;;;;17.60;8.40;;;19.10;1.00;;;;;;5013916;28;20244;-52
2023/09/26 09:38:12;;;;;;;14.57;7.63;;;19.20;1.00;;;;;;4999315;28;20863;-53
2023/09/26 09:40:38;;;;;;;10.80;7.60;;;19.30;1.00;;;;;;5001092;28;20188;-53
2023/09/26 09:43:04;;;;;;;12.50;7.20;;;19.50;1.00;;;;;;5000491;28;20944;-53
2023/09/26 09:45:34;;;;;;;20.80;7.17;;;19.60;1.00;;;;;;5001076;28;20212;-52
2023/09/26 09:48:03;;;;;;;12.80;6.57;;;19.80;1.00;;;;;;5000597;28;20193;-54
2023/09/26 09:50:32;;;;;;;10.63;6.93;;;19.90;1.00;;;;;;5000775;28;20453;-53
2023/09/26 09:53:01;;;;;;;10.43;6.37;;;20.00;1.00;;;;;;5004247;28;20446;-53
2023/09/26 09:55:38;;;;;;;14.07;6.27;;;20.20;1.00;;;;;;5000801;28;20510;-52
2023/09/26 09:58:08;;;;;;;9.90;6.10;;;20.40;1.00;;;;;;5000554;28;20475;-53
2023/09/26 10:00:36;;;;;;;9.07;6.33;;;20.50;1.00;;;;;;5003242;28;20455;-53
2023/09/26 10:03:04;;;;;;;10.73;6.60;;;20.70;1.00;;;;;;5000342;28;20498;-53
2023/09/26 10:05:31;;;;;;;12.50;6.97;;;20.90;1.00;;;;;;5000471;28;20562;-52
2023/09/26 10:07:58;;;;;;;7.57;6.40;;;21.10;1.00;;;;;;4999972;28;20879;-53
2023/09/26 10:10:26;;;;;;;10.60;6.00;;;21.30;1.00;;;;;;5000200;28;20540;-52
2023/09/26 10:12:52;;;;;;;11.93;6.43;;;21.40;1.00;;;;;;5003055;28;20542;-53
2023/09/26 10:15:18;;;;;;;10.93;6.10;;;21.40;1.00;;;;;;5003892;28;20473;-54
2023/09/26 10:17:46;;;;;;;9.93;6.23;;;21.50;1.00;;;;;;5000295;28;20444;-52
2023/09/26 10:20:14;;;;;;;11.80;6.00;;;21.60;1.00;;;;;;4999875;28;20195;-53
2023/09/26 10:22:41;;;;;;;11.20;6.47;;;21.50;1.00;;;;;;4999347;28;21002;-52
2023/09/26 10:25:08;;;;;;;11.13;5.80;;;21.50;1.00;;;;;;5003804;28;20488;-52
2023/09/26 10:27:34;;;;;;;16.30;5.67;;;21.50;1.00;;;;;;5001978;28;20431;-52
2023/09/26 10:30:03;;;;;;;9.60;5.83;;;21.70;1.00;;;;;;4999830;28;20514;-51
2023/09/26 10:32:35;;;;;;;9.70;6.33;;;22.30;1.00;;;;;;5000370;28;20274;-52
2023/09/26 10:35:13;;;;;;;11.93;5.53;;;23.00;1.00;;;;;;4999385;28;20862;-51
2023/09/26 10:37:40;;;;;;;7.30;5.60;;;23.70;1.00;;;;;;4998790;28;20443;-51
2023/09/26 10:40:13;;;;;;;8.00;5.33;;;24.20;1.00;;;;;;5000556;28;21124;-51
2023/09/26 10:42:44;;;;;;;7.53;5.17;;;24.50;1.00;;;;;;5000107;28;20449;-50
2023/09/26 10:45:10;;;;;;;9.40;4.70;;;24.50;1.00;;;;;;5000081;28;20470;-51
2023/09/26 10:47:39;;;;;;;8.30;4.83;;;25.20;1.00;;;;;;4999619;28;20462;-50
2023/09/26 10:50:12;;;;;;;9.13;5.50;;;25.80;1.00;;;;;;4999791;28;20471;-51
2023/09/26 10:52:41;;;;;;;7.10;4.80;;;25.90;1.00;;;;;;5001214;28;20437;-51
2023/09/26 10:55:10;;;;;;;14.80;5.77;;;25.50;1.00;;;;;;5000191;28;20526;-51
2023/09/26 10:57:37;;;;;;;9.50;5.53;;;25.10;1.00;;;;;;4999676;28;20443;-51
2023/09/26 11:00:13;;;;;;;13.20;5.00;;;24.70;1.00;;;;;;4998742;28;20431;-52
2023/09/26 11:02:39;;;;;;;5.67;4.83;;;24.70;1.00;;;;;;4999684;28;20447;-51
2023/09/26 11:05:10;;;;;;;6.07;4.50;;;25.20;1.00;;;;;;4999012;28;20570;-51
2023/09/26 11:07:37;;;;;;;6.03;5.23;;;25.60;1.00;;;;;;4998637;28;20450;-52
2023/09/26 11:10:06;;;;;;;6.60;4.40;;;25.40;1.00;;;;;;4999418;28;20936;-51
2023/09/26 11:12:32;;;;;;;7.17;4.80;;;25.10;1.00;;;;;;4999231;28;20450;-51
2023/09/26 11:14:59;;;;;;;8.97;5.73;;;24.60;1.00;;;;;;4999072;28;20439;-51
2023/09/26 11:17:27;;;;;;;5.47;4.63;;;24.10;1.00;;;;;;5002701;28;20200;-50
2023/09/26 11:19:57;;;;;;;15.33;5.40;;;23.80;1.00;;;;;;5000656;28;20444;-52
2023/09/26 11:22:23;;;;;;;9.97;5.40;;;23.80;1.00;;;;;;4998989;28;20505;-52
2023/09/26 11:24:49;;;;;;;6.80;5.13;;;23.70;1.00;;;;;;4998717;28;20574;-51
2023/09/26 11:27:15;;;;;;;5.77;4.93;;;24.00;1.00;;;;;;4998988;28;20871;-51
2023/09/26 11:29:41;;;;;;;4.90;4.50;;;24.70;1.00;;;;;;4998596;28;20447;-52
2023/09/26 11:32:06;;;;;;;11.30;4.23;;;26.10;1.00;;;;;;4998313;28;20185;-51
2023/09/26 11:34:35;;;;;;;6.73;4.13;;;27.30;1.00;;;;;;5001799;28;20185;-51
2023/09/26 11:37:00;;;;;;;6.93;4.80;;;28.50;1.00;;;;;;5000235;28;20189;-51
2023/09/26 11:39:26;;;;;;;5.40;4.27;;;29.30;1.00;;;;;;5000452;28;20445;-51
2023/09/26 11:42:10;;;;;;;4.43;3.57;;;30.00;1.00;;;;;;5011421;28;20317;-55
2023/09/26 11:44:36;;;;;;;5.63;3.40;;;30.00;1.00;;;;;;4998143;28;20299;-51
2023/09/26 11:47:07;;;;;;;5.20;3.87;;;29.90;1.00;;;;;;5002942;28;20435;-51
2023/09/26 11:49:35;;;;;;;5.37;3.40;;;29.90;99.90;;;;;;5002494;28;20444;-52
2023/09/26 11:52:01;;;;;;;7.90;3.50;;;30.20;99.90;;;;;;5001045;28;20435;-51
2023/09/26 11:54:27;;;;;;;4.80;3.10;;;30.40;99.90;;;;;;5000525;28;20450;-51
2023/09/26 11:56:53;;;;;;;7.53;3.43;;;30.70;99.90;;;;;;5003043;28;20255;-51
2023/09/26 11:59:19;;;;;;;3.30;2.90;;;31.10;99.90;;;;;;4997695;28;20454;-53
2023/09/26 12:01:44;;;;;;;6.17;3.10;;;31.10;99.90;;;;;;4998679;28;20435;-50
2023/09/26 12:04:12;;;;;;;3.97;3.47;;;30.90;99.90;;;;;;5000390;28;20192;-53
2023/09/26 12:06:40;;;;;;;3.70;3.40;;;31.10;99.90;;;;;;5003323;28;20283;-51
2023/09/26 12:09:09;;;;;;;6.97;3.13;;;31.00;99.90;;;;;;5001721;28;20472;-52
2023/09/26 12:11:35;;;;;;;3.27;2.97;;;31.10;99.90;;;;;;5001529;28;20805;-52
2023/09/26 12:14:01;;;;;;;3.30;2.90;;;30.90;99.90;;;;;;4997680;28;20440;-51
2023/09/26 12:16:29;;;;;;;7.13;4.20;;;30.70;99.90;;;;;;4997645;28;20494;-52
2023/09/26 12:18:55;;;;;;;3.53;3.23;;;30.50;99.90;;;;;;4998194;28;20280;-52
2023/09/26 12:21:20;;;;;;;3.23;2.60;;;30.20;99.90;;;;;;4997282;28;20875;-53
2023/09/26 12:23:46;;;;;;;5.07;3.40;;;30.80;99.90;;;;;;4997448;28;20236;-52
2023/09/26 12:26:11;;;;;;;3.13;2.70;;;31.40;99.90;;;;;;4997863;28;20212;-52
2023/09/26 12:28:37;;;;;;;5.07;3.10;;;31.70;99.90;;;;;;4997444;28;20199;-53
2023/09/26 12:31:03;;;;;;;7.47;3.70;;;31.90;99.90;;;;;;4998303;28;20284;-52
2023/09/26 12:33:28;;;;;;;6.80;3.10;;;31.70;99.90;;;;;;4997336;28;20218;-52
2023/09/26 12:35:56;;;;;;;5.57;3.17;;;31.60;99.90;;;;;;4997569;28;20212;-51
2023/09/26 12:38:21;;;;;;;3.33;3.10;;;31.40;99.90;;;;;;4997789;28;20275;-52